Time;durP1;ratioP1;P1;durP2;ratioP2;P2;SDS_P1;SDS_P2;PMS_P1;PMS_P2;Temp;Humidity;BMP_temperature;BMP_pressure;BME280_temperature;BME280_humidity;BME280_pressure;Samples;Min_cycle;Max_cycle;Signal;HPM_P1;HPM_P2
2022/04/04 00:00:04;;;;;;;0.97;0.97;;;4.40;99.90;;;;;;5045202;28;20320;-83
2022/04/04 00:02:30;;;;;;;1.73;1.63;;;4.40;99.90;;;;;;5078353;28;20240;-83
2022/04/04 00:04:55;;;;;;;1.17;1.07;;;4.40;99.90;;;;;;5062163;28;20219;-82
2022/04/04 00:07:21;;;;;;;0.93;0.83;;;4.40;99.90;;;;;;5045264;28;20205;-85
2022/04/04 00:09:47;;;;;;;1.10;1.00;;;4.40;99.90;;;;;;5062399;28;20242;-81
2022/04/04 00:12:12;;;;;;;2.40;1.33;;;4.50;99.90;;;;;;5061940;28;20294;-84
2022/04/04 00:14:38;;;;;;;0.40;0.40;;;4.50;99.90;;;;;;5061997;28;20213;-84
2022/04/04 00:17:05;;;;;;;2.43;0.73;;;4.50;99.90;;;;;;5061388;28;20225;-85
2022/04/04 00:19:31;;;;;;;0.67;0.67;;;4.50;99.90;;;;;;5045293;28;20189;-84
2022/04/04 00:21:57;;;;;;;0.53;0.53;;;4.60;99.90;;;;;;5063452;28;20285;-84
2022/04/04 00:24:23;;;;;;;0.80;0.43;;;4.60;99.90;;;;;;5061809;28;20589;-84
2022/04/04 00:26:48;;;;;;;0.57;0.57;;;4.60;99.90;;;;;;5062264;28;20217;-83
2022/04/04 00:29:14;;;;;;;0.93;0.83;;;4.60;99.90;;;;;;5061758;28;20224;-83
2022/04/04 00:31:40;;;;;;;0.70;0.70;;;4.60;99.90;;;;;;5061736;28;20220;-84
2022/04/04 00:34:06;;;;;;;1.70;1.43;;;4.70;99.90;;;;;;5061384;28;20196;-84
2022/04/04 00:36:31;;;;;;;1.97;1.10;;;4.70;99.90;;;;;;5045285;28;20334;-84
2022/04/04 00:38:57;;;;;;;1.00;0.57;;;4.70;99.90;;;;;;5077754;28;20228;-84
2022/04/04 00:41:23;;;;;;;0.97;0.97;;;4.80;99.90;;;;;;5061061;28;20249;-84
2022/04/04 00:43:53;;;;;;;0.90;0.90;;;4.80;99.90;;;;;;5043997;28;20221;-82
2022/04/04 00:46:19;;;;;;;1.67;1.23;;;4.80;99.90;;;;;;5063531;28;20196;-83
2022/04/04 00:48:45;;;;;;;1.37;1.27;;;4.80;99.90;;;;;;5044477;28;21089;-83
2022/04/04 00:51:10;;;;;;;0.87;0.87;;;4.90;99.90;;;;;;5044156;28;20223;-84
2022/04/04 00:53:37;;;;;;;0.67;0.67;;;4.90;99.90;;;;;;5060673;28;20209;-84
2022/04/04 00:56:02;;;;;;;1.27;1.10;;;4.90;99.90;;;;;;5077904;28;20246;-82
2022/04/04 00:58:32;;;;;;;2.00;0.93;;;5.00;99.90;;;;;;5077744;28;20201;-84
2022/04/04 01:00:59;;;;;;;1.90;1.03;;;5.00;99.90;;;;;;5044377;28;20241;-84
2022/04/04 01:03:25;;;;;;;1.47;1.37;;;5.00;99.90;;;;;;5060385;28;20592;-82
2022/04/04 01:05:51;;;;;;;5.63;2.53;;;5.10;99.90;;;;;;5053984;28;20217;-83
2022/04/04 01:08:16;;;;;;;3.67;1.70;;;5.10;99.90;;;;;;5043295;28;20254;-84
2022/04/04 01:10:43;;;;;;;1.63;1.53;;;5.00;99.90;;;;;;5043883;28;20323;-83
2022/04/04 01:13:11;;;;;;;2.10;2.00;;;5.10;99.90;;;;;;5043899;28;20200;-83
2022/04/04 01:15:37;;;;;;;1.30;1.20;;;5.10;99.90;;;;;;5044397;28;20233;-83
2022/04/04 01:18:04;;;;;;;2.20;1.67;;;5.10;99.90;;;;;;5076673;28;20315;-84
2022/04/04 01:20:31;;;;;;;1.97;1.87;;;5.20;99.90;;;;;;5077302;28;20225;-83
2022/04/04 01:22:56;;;;;;;6.80;1.37;;;5.20;99.90;;;;;;5059766;28;20233;-85
2022/04/04 01:25:27;;;;;;;1.53;1.43;;;5.30;99.90;;;;;;5076852;28;20211;-83
2022/04/04 01:27:55;;;;;;;3.70;2.80;;;5.30;99.90;;;;;;5044308;28;20185;-84
2022/04/04 01:30:22;;;;;;;2.67;1.60;;;5.30;99.90;;;;;;5043130;28;20230;-83
2022/04/04 01:32:49;;;;;;;2.60;2.40;;;5.40;99.90;;;;;;5043819;28;20217;-82
2022/04/04 01:35:19;;;;;;;1.43;1.33;;;5.50;99.90;;;;;;5059688;28;21056;-84
2022/04/04 01:37:45;;;;;;;4.47;2.43;;;5.60;99.90;;;;;;5043827;28;20779;-85
2022/04/04 01:40:11;;;;;;;4.27;2.73;;;5.60;99.90;;;;;;5061643;28;20665;-84
2022/04/04 01:42:38;;;;;;;4.33;2.23;;;5.60;99.90;;;;;;5060525;28;20225;-83
2022/04/04 01:45:06;;;;;;;4.13;2.77;;;5.70;99.90;;;;;;5076920;28;20316;-85
2022/04/04 01:47:32;;;;;;;3.03;2.40;;;5.70;99.90;;;;;;5043088;28;20213;-84
2022/04/04 01:49:58;;;;;;;1.80;1.70;;;5.70;99.90;;;;;;5043159;28;20217;-83
2022/04/04 01:52:24;;;;;;;2.97;2.50;;;5.70;99.90;;;;;;5061311;28;20203;-84
2022/04/04 01:54:49;;;;;;;1.73;1.63;;;5.80;99.90;;;;;;5042935;28;20193;-83
2022/04/04 01:57:15;;;;;;;3.33;3.03;;;5.80;99.90;;;;;;5059913;28;20213;-84
2022/04/04 01:59:41;;;;;;;1.87;1.77;;;5.80;99.90;;;;;;5059425;28;20300;-84
2022/04/04 02:02:07;;;;;;;2.57;2.47;;;5.80;99.90;;;;;;5076683;28;20229;-83
2022/04/04 02:04:33;;;;;;;3.53;3.23;;;5.90;99.90;;;;;;5059206;28;20193;-84
2022/04/04 02:06:59;;;;;;;3.33;2.47;;;5.90;99.90;;;;;;5010522;28;20193;-83
2022/04/04 02:09:25;;;;;;;3.17;2.70;;;5.90;99.90;;;;;;5075906;28;20262;-83
2022/04/04 02:11:51;;;;;;;3.63;2.13;;;5.90;99.90;;;;;;5043098;28;20717;-83
2022/04/04 02:14:17;;;;;;;4.87;2.73;;;6.00;99.90;;;;;;5042753;28;20221;-83
2022/04/04 02:16:43;;;;;;;3.70;3.23;;;6.00;99.90;;;;;;5059732;28;20232;-84
2022/04/04 02:19:09;;;;;;;6.83;3.63;;;6.00;99.90;;;;;;5042672;28;20194;-82
2022/04/04 02:21:36;;;;;;;3.17;2.50;;;6.00;99.90;;;;;;5072604;28;20583;-83
2022/04/04 02:24:02;;;;;;;6.57;3.30;;;6.00;99.90;;;;;;5076052;28;20619;-84
2022/04/04 02:26:29;;;;;;;3.43;2.70;;;6.00;99.90;;;;;;5058730;28;20256;-84
2022/04/04 02:28:54;;;;;;;3.90;2.83;;;6.10;99.90;;;;;;5042839;28;20228;-83
2022/04/04 02:31:20;;;;;;;3.77;2.23;;;6.10;99.90;;;;;;5060429;28;20189;-84
2022/04/04 02:33:46;;;;;;;2.23;2.13;;;6.10;99.90;;;;;;5076423;28;21006;-83
2022/04/04 02:36:12;;;;;;;5.07;2.70;;;6.10;99.90;;;;;;5058730;28;20573;-84
2022/04/04 02:38:38;;;;;;;2.87;2.10;;;6.20;99.90;;;;;;5042774;28;20328;-84
2022/04/04 02:41:04;;;;;;;1.97;1.83;;;6.20;99.90;;;;;;5041818;28;20344;-83
2022/04/04 02:43:31;;;;;;;2.57;2.07;;;6.20;99.90;;;;;;5042697;28;20288;-84
2022/04/04 02:45:57;;;;;;;9.47;2.37;;;6.20;99.90;;;;;;5071224;28;20967;-85
2022/04/04 02:48:23;;;;;;;5.57;3.10;;;6.30;99.90;;;;;;5042393;28;20217;-83
2022/04/04 02:50:49;;;;;;;15.63;2.57;;;6.50;99.90;;;;;;5058674;28;20300;-82
2022/04/04 02:53:15;;;;;;;2.93;2.00;;;6.70;99.90;;;;;;5042079;28;20233;-83
2022/04/04 02:58:27;;;;;;;3.00;2.73;;;6.80;99.90;;;;;;5060558;28;20532;-84
2022/04/04 03:00:53;;;;;;;1.27;1.00;;;6.70;99.90;;;;;;5042718;28;20237;-83
2022/04/04 03:03:19;;;;;;;3.37;3.13;;;6.70;99.90;;;;;;5058473;28;20232;-84
2022/04/04 03:05:45;;;;;;;3.70;1.53;;;6.70;99.90;;;;;;5058620;28;20221;-85
2022/04/04 03:08:10;;;;;;;6.50;2.40;;;6.70;99.90;;;;;;5059557;28;20221;-84
2022/04/04 03:10:36;;;;;;;2.20;2.00;;;6.60;99.90;;;;;;5075754;28;20196;-84
2022/04/04 03:13:05;;;;;;;3.80;2.20;;;6.60;99.90;;;;;;5076524;28;20193;-84
2022/04/04 03:15:34;;;;;;;1.70;1.60;;;6.60;99.90;;;;;;5075576;28;20209;-86
2022/04/04 03:18:00;;;;;;;5.47;2.23;;;6.60;99.90;;;;;;5060677;28;20216;-83
2022/04/04 03:20:27;;;;;;;1.53;1.43;;;6.60;99.90;;;;;;5060488;28;20270;-85
2022/04/04 03:22:56;;;;;;;2.63;2.43;;;6.50;99.90;;;;;;5046474;28;20228;-83
2022/04/04 03:25:22;;;;;;;16.43;2.27;;;6.50;99.90;;;;;;5064482;28;20274;-85
2022/04/04 03:27:49;;;;;;;1.83;1.73;;;6.40;99.90;;;;;;5046980;28;20206;-85
2022/04/04 03:30:18;;;;;;;2.20;2.00;;;6.40;99.90;;;;;;5062191;28;20213;-84
2022/04/04 03:32:49;;;;;;;3.93;3.63;;;6.40;99.90;;;;;;5079626;28;20221;-86
2022/04/04 03:35:15;;;;;;;1.63;1.53;;;6.30;99.90;;;;;;5046269;28;20228;-85
2022/04/04 03:37:44;;;;;;;2.90;2.40;;;6.30;99.90;;;;;;5079402;28;20221;-84
2022/04/04 03:40:13;;;;;;;2.90;2.13;;;6.30;99.90;;;;;;5064132;28;20190;-84
2022/04/04 03:42:44;;;;;;;1.60;1.50;;;6.30;99.90;;;;;;5045304;28;20225;-83
2022/04/04 03:45:12;;;;;;;2.73;1.87;;;6.30;99.90;;;;;;5045546;28;20278;-85
2022/04/04 03:47:38;;;;;;;3.43;3.00;;;6.30;99.90;;;;;;5079157;28;20274;-82
2022/04/04 03:50:05;;;;;;;1.40;1.33;;;6.30;99.90;;;;;;5062880;28;20740;-85
2022/04/04 03:52:31;;;;;;;0.90;0.90;;;6.20;99.90;;;;;;5045277;28;20190;-84
2022/04/04 03:54:57;;;;;;;7.10;2.67;;;6.20;99.90;;;;;;5079905;28;20204;-83
2022/04/04 03:57:23;;;;;;;2.33;2.23;;;6.10;99.90;;;;;;5045694;28;20225;-84
2022/04/04 03:59:49;;;;;;;1.03;1.03;;;6.10;99.90;;;;;;5029263;28;20245;-85
2022/04/04 04:02:15;;;;;;;1.73;1.63;;;6.10;99.90;;;;;;5078886;28;20225;-85
2022/04/04 04:04:40;;;;;;;2.77;2.07;;;6.10;99.90;;;;;;5079042;28;20266;-84
2022/04/04 04:07:10;;;;;;;3.40;1.83;;;6.10;99.90;;;;;;5062887;28;20606;-82
2022/04/04 04:09:37;;;;;;;3.47;2.40;;;6.00;99.90;;;;;;5045237;28;20225;-81
2022/04/04 04:12:03;;;;;;;0.87;0.87;;;6.00;99.90;;;;;;5045082;28;20289;-84
2022/04/04 04:14:29;;;;;;;2.60;2.40;;;6.00;99.90;;;;;;5079130;28;20217;-84
2022/04/04 04:16:55;;;;;;;2.03;1.90;;;6.00;99.90;;;;;;5063426;28;20255;-84
2022/04/04 04:22:05;;;;;;;2.17;1.70;;;6.00;99.90;;;;;;5076473;28;20233;-84
2022/04/04 04:24:31;;;;;;;2.03;1.83;;;6.00;99.90;;;;;;5062501;28;20296;-84
2022/04/04 04:26:57;;;;;;;1.80;1.70;;;6.00;99.90;;;;;;5078759;28;20220;-84
2022/04/04 04:29:22;;;;;;;4.53;2.03;;;6.00;99.90;;;;;;5045601;28;20263;-85
2022/04/04 04:31:48;;;;;;;1.70;1.60;;;6.00;99.90;;;;;;5062019;28;20574;-84
2022/04/04 04:34:14;;;;;;;0.90;0.90;;;6.00;99.90;;;;;;5064588;28;21006;-85
2022/04/04 04:36:40;;;;;;;3.97;1.63;;;6.00;99.90;;;;;;5065107;28;20217;-84
2022/04/04 04:39:07;;;;;;;1.23;1.20;;;6.00;99.90;;;;;;5062845;28;20230;-85
2022/04/04 04:41:33;;;;;;;2.73;2.10;;;6.00;99.90;;;;;;5063300;28;20358;-84
2022/04/04 04:44:02;;;;;;;1.93;1.03;;;5.90;99.90;;;;;;5046144;28;20330;-85
2022/04/04 04:46:33;;;;;;;1.73;1.50;;;5.90;99.90;;;;;;5064060;28;20280;-84
2022/04/04 04:48:59;;;;;;;1.10;1.10;;;5.90;99.90;;;;;;5079218;28;20276;-85
2022/04/04 04:51:25;;;;;;;1.47;1.37;;;5.90;99.90;;;;;;5079587;28;20308;-84
2022/04/04 04:53:51;;;;;;;0.93;0.93;;;5.80;99.90;;;;;;5046097;28;20229;-85
2022/04/04 04:56:16;;;;;;;1.17;1.17;;;5.80;99.90;;;;;;5063632;28;20744;-84
2022/04/04 04:58:42;;;;;;;1.07;0.70;;;5.80;99.90;;;;;;5062520;28;20232;-84
2022/04/04 05:01:08;;;;;;;0.53;0.53;;;5.80;99.90;;;;;;5063159;28;20827;-84
2022/04/04 05:03:34;;;;;;;0.53;0.53;;;5.70;99.90;;;;;;5078779;28;20229;-84
2022/04/04 05:05:59;;;;;;;1.07;1.00;;;5.60;99.90;;;;;;5045958;28;20216;-84
2022/04/04 05:08:25;;;;;;;0.73;0.73;;;5.60;99.90;;;;;;5053676;28;20631;-84
2022/04/04 05:10:52;;;;;;;1.37;1.30;;;5.50;99.90;;;;;;5045672;28;20209;-83
2022/04/04 05:13:18;;;;;;;0.40;0.40;;;5.50;99.90;;;;;;5063728;28;20664;-84
2022/04/04 05:15:45;;;;;;;0.77;0.77;;;5.40;99.90;;;;;;5063243;28;20212;-84
2022/04/04 05:18:11;;;;;;;8.67;1.90;;;5.40;99.90;;;;;;5062774;28;20221;-83
2022/04/04 05:20:37;;;;;;;0.70;0.60;;;5.40;99.90;;;;;;5062245;28;20228;-84
2022/04/04 05:23:03;;;;;;;0.40;0.40;;;5.20;99.90;;;;;;5077938;28;20635;-84
2022/04/04 05:25:28;;;;;;;1.27;1.17;;;5.20;99.90;;;;;;5045217;28;20399;-83
2022/04/04 05:27:56;;;;;;;1.30;1.07;;;5.20;99.90;;;;;;5078745;28;20284;-84
2022/04/04 05:30:23;;;;;;;0.77;0.60;;;5.20;99.90;;;;;;5044653;28;20683;-84
2022/04/04 05:32:49;;;;;;;0.60;0.60;;;5.30;99.90;;;;;;5050045;28;20228;-84
2022/04/04 05:35:16;;;;;;;0.70;0.60;;;5.30;99.90;;;;;;5062684;28;20225;-84
2022/04/04 05:37:42;;;;;;;0.80;0.53;;;5.30;99.90;;;;;;5044596;28;20286;-84
2022/04/04 05:40:09;;;;;;;2.10;1.00;;;5.30;99.90;;;;;;5061592;28;20193;-84
2022/04/04 05:42:34;;;;;;;1.33;1.33;;;5.40;99.90;;;;;;5078905;28;20658;-84
2022/04/04 05:45:00;;;;;;;0.97;0.97;;;5.40;99.90;;;;;;5060369;28;20224;-83
2022/04/04 05:47:27;;;;;;;1.07;1.07;;;5.50;99.90;;;;;;5044639;28;20244;-83
2022/04/04 05:49:53;;;;;;;2.27;1.27;;;5.50;99.90;;;;;;5044265;28;20316;-84
2022/04/04 05:52:23;;;;;;;3.50;0.70;;;5.50;99.90;;;;;;5045267;28;20826;-83
2022/04/04 05:54:57;;;;;;;1.83;1.73;;;5.50;99.90;;;;;;5027853;28;20213;-85
2022/04/04 05:57:25;;;;;;;0.50;0.50;;;5.50;99.90;;;;;;5078400;28;20237;-86
2022/04/04 05:59:54;;;;;;;7.10;0.80;;;5.50;99.90;;;;;;5078881;28;20244;-86
2022/04/04 06:02:22;;;;;;;0.80;0.80;;;5.50;99.90;;;;;;5079134;28;20311;-87
2022/04/04 06:04:49;;;;;;;0.60;0.60;;;5.60;99.90;;;;;;5078100;28;20221;-86
2022/04/04 06:07:14;;;;;;;5.33;1.53;;;5.60;99.90;;;;;;5063750;28;20177;-87
2022/04/04 06:09:40;;;;;;;19.10;2.83;;;5.70;99.90;;;;;;5077993;28;20228;-86
2022/04/04 06:12:08;;;;;;;3.77;2.27;;;5.80;99.90;;;;;;5044731;28;20320;-85
2022/04/04 06:14:34;;;;;;;1.03;1.03;;;5.90;99.90;;;;;;5078495;28;20267;-85
2022/04/04 06:17:05;;;;;;;3.27;1.67;;;6.00;99.90;;;;;;5077726;28;20478;-85
2022/04/04 06:19:32;;;;;;;4.13;1.00;;;6.00;99.90;;;;;;5060541;28;20197;-86
2022/04/04 06:21:58;;;;;;;1.47;1.37;;;6.00;99.90;;;;;;5077638;28;20217;-86
2022/04/04 06:24:23;;;;;;;1.57;1.37;;;6.10;99.90;;;;;;5060061;28;20224;-85
2022/04/04 06:26:49;;;;;;;6.53;2.03;;;6.10;99.90;;;;;;5060352;28;20593;-86
2022/04/04 06:29:15;;;;;;;2.10;1.77;;;6.10;99.90;;;;;;5078936;28;20213;-84
2022/04/04 06:31:41;;;;;;;4.83;2.93;;;6.10;99.90;;;;;;5061018;28;20748;-85
2022/04/04 06:34:08;;;;;;;2.17;1.97;;;6.10;99.90;;;;;;5062954;28;20539;-85
2022/04/04 06:36:34;;;;;;;1.77;1.43;;;6.20;99.90;;;;;;5060869;28;20224;-85
2022/04/04 06:39:00;;;;;;;3.03;1.33;;;6.20;99.90;;;;;;5061180;28;20217;-84
2022/04/04 06:41:26;;;;;;;2.07;1.87;;;6.20;99.90;;;;;;5061195;28;20690;-82
2022/04/04 06:43:51;;;;;;;5.30;4.87;;;6.20;99.90;;;;;;5060441;28;20590;-85
2022/04/04 06:46:18;;;;;;;2.53;2.03;;;6.30;99.90;;;;;;5059962;28;20600;-82
2022/04/04 06:48:49;;;;;;;3.77;0.90;;;6.30;99.90;;;;;;5061756;28;20252;-84
2022/04/04 06:51:15;;;;;;;3.37;1.90;;;6.30;99.90;;;;;;5061093;28;20378;-82
2022/04/04 06:53:40;;;;;;;2.10;1.90;;;6.30;99.90;;;;;;5060342;28;20311;-84
2022/04/04 06:56:06;;;;;;;2.37;2.17;;;6.30;99.90;;;;;;5047262;28;20247;-83
2022/04/04 06:58:33;;;;;;;1.03;1.03;;;6.30;99.90;;;;;;5068819;28;20193;-85
2022/04/04 07:00:59;;;;;;;1.40;1.30;;;6.30;99.90;;;;;;5050187;28;20224;-85
2022/04/04 07:03:25;;;;;;;4.83;2.20;;;6.30;99.90;;;;;;5049936;28;20316;-83
2022/04/04 07:05:51;;;;;;;3.40;1.60;;;6.40;99.90;;;;;;5067169;28;20311;-85
2022/04/04 07:08:16;;;;;;;1.67;1.17;;;6.40;99.90;;;;;;5049916;28;20221;-83
2022/04/04 07:10:42;;;;;;;3.63;1.70;;;6.40;99.90;;;;;;5084161;28;20262;-86
2022/04/04 07:13:08;;;;;;;4.33;3.83;;;6.50;99.90;;;;;;5084517;28;20287;-86
2022/04/04 07:15:35;;;;;;;1.33;1.20;;;6.50;99.90;;;;;;5067202;28;20224;-85
2022/04/04 07:18:02;;;;;;;2.90;2.03;;;6.50;99.90;;;;;;5067477;28;21061;-86
2022/04/04 07:20:27;;;;;;;13.67;1.80;;;6.50;99.90;;;;;;5066777;28;20217;-86
2022/04/04 07:22:53;;;;;;;3.80;2.57;;;6.60;99.90;;;;;;5068498;28;20229;-85
2022/04/04 07:25:21;;;;;;;1.63;1.20;;;6.60;99.90;;;;;;5067681;28;20189;-85
2022/04/04 07:27:48;;;;;;;10.90;1.67;;;6.60;99.90;;;;;;5067247;28;20224;-85
2022/04/04 07:30:19;;;;;;;1.50;1.40;;;6.60;99.90;;;;;;5068030;28;20743;-84
2022/04/04 07:32:47;;;;;;;1.77;1.57;;;6.60;99.90;;;;;;5050017;28;20220;-84
2022/04/04 07:35:13;;;;;;;7.50;1.83;;;6.70;99.90;;;;;;5050335;28;20621;-86
2022/04/04 07:37:44;;;;;;;1.70;1.53;;;6.70;99.90;;;;;;5067426;28;20662;-83
2022/04/04 07:40:13;;;;;;;4.87;1.60;;;6.70;99.90;;;;;;5051187;28;21087;-86
2022/04/04 07:42:40;;;;;;;1.90;1.67;;;6.70;99.90;;;;;;5050700;28;20324;-87
2022/04/04 07:45:07;;;;;;;2.80;1.63;;;6.70;99.90;;;;;;5050343;28;20229;-84
2022/04/04 07:47:34;;;;;;;2.63;1.13;;;6.70;99.90;;;;;;5066902;28;20232;-85
2022/04/04 07:50:00;;;;;;;1.70;1.60;;;6.70;99.90;;;;;;5068901;28;20213;-84
2022/04/04 07:52:27;;;;;;;0.73;0.67;;;6.80;99.90;;;;;;5050135;28;21018;-86
2022/04/04 07:54:54;;;;;;;1.83;0.93;;;6.80;99.90;;;;;;5068196;28;20824;-84
2022/04/04 07:57:21;;;;;;;1.93;1.50;;;6.80;99.90;;;;;;5050432;28;20225;-88
2022/04/04 07:59:47;;;;;;;1.50;1.40;;;6.80;99.90;;;;;;5050671;28;20630;-88
2022/04/04 08:02:13;;;;;;;5.20;1.70;;;6.80;99.90;;;;;;5083969;28;20269;-88
2022/04/04 08:04:39;;;;;;;0.97;0.97;;;6.90;99.90;;;;;;5084553;28;20541;-87
2022/04/04 08:07:05;;;;;;;2.13;1.40;;;6.90;99.90;;;;;;5048942;28;20204;-88
2022/04/04 08:09:31;;;;;;;1.33;1.00;;;6.90;99.90;;;;;;5064723;28;20297;-88
2022/04/04 08:11:57;;;;;;;4.17;1.90;;;6.90;99.90;;;;;;5015246;28;20367;-88
2022/04/04 08:14:23;;;;;;;1.87;1.60;;;6.90;99.90;;;;;;5048441;28;20217;-89
2022/04/04 08:16:50;;;;;;;5.53;1.33;;;7.00;99.90;;;;;;5048806;28;20269;-87
2022/04/04 08:19:16;;;;;;;3.37;1.90;;;7.00;99.90;;;;;;5065792;28;20193;-87
2022/04/04 08:21:44;;;;;;;0.90;0.90;;;7.00;99.90;;;;;;5065588;28;20225;-86
2022/04/04 08:24:11;;;;;;;1.17;1.10;;;7.10;99.90;;;;;;5064280;28;20221;-86
2022/04/04 08:26:37;;;;;;;2.20;1.47;;;7.10;99.90;;;;;;5046614;28;20224;-86
2022/04/04 08:29:03;;;;;;;4.67;1.37;;;7.20;99.90;;;;;;5065252;28;20251;-87
2022/04/04 08:31:29;;;;;;;1.20;1.10;;;7.10;99.90;;;;;;5046615;28;20191;-87
2022/04/04 08:33:54;;;;;;;1.93;1.17;;;7.20;99.90;;;;;;5047510;28;20197;-86
2022/04/04 08:36:20;;;;;;;0.47;0.47;;;7.20;99.90;;;;;;5080556;28;20223;-86
2022/04/04 08:38:46;;;;;;;1.27;0.77;;;7.20;99.90;;;;;;5064415;28;20711;-89
2022/04/04 08:41:12;;;;;;;1.57;0.83;;;7.20;99.90;;;;;;5064156;28;20217;-88
2022/04/04 08:43:42;;;;;;;5.03;1.00;;;7.20;99.90;;;;;;5063609;28;20213;-87
2022/04/04 08:46:08;;;;;;;1.60;1.50;;;7.30;99.90;;;;;;5065530;28;20260;-84
2022/04/04 08:48:39;;;;;;;1.47;1.20;;;7.30;99.90;;;;;;5064922;28;20776;-85
2022/04/04 08:51:07;;;;;;;1.33;1.10;;;7.30;99.90;;;;;;5047220;28;20244;-86
2022/04/04 08:53:37;;;;;;;0.70;0.70;;;7.30;99.90;;;;;;5080115;28;20225;-85
2022/04/04 08:56:05;;;;;;;1.00;0.87;;;7.40;99.90;;;;;;5065113;28;20217;-85
2022/04/04 08:58:31;;;;;;;5.37;0.93;;;7.50;99.90;;;;;;5063510;28;20633;-85
2022/04/04 09:00:58;;;;;;;1.63;1.40;;;7.50;99.90;;;;;;5046118;28;20452;-87
2022/04/04 09:03:29;;;;;;;0.37;0.37;;;7.50;99.90;;;;;;5079458;28;20241;-86
2022/04/04 09:06:01;;;;;;;2.37;1.33;;;7.40;99.90;;;;;;5040646;28;20229;-86
2022/04/04 09:08:30;;;;;;;0.70;0.60;;;7.50;99.90;;;;;;5046232;28;20213;-86
2022/04/04 09:11:02;;;;;;;0.80;0.80;;;7.50;99.90;;;;;;5063319;28;20218;-86
2022/04/04 09:13:29;;;;;;;4.63;2.10;;;7.60;99.90;;;;;;5062278;28;20213;-86
2022/04/04 09:15:58;;;;;;;2.87;0.87;;;7.50;99.90;;;;;;5047886;28;20178;-86
2022/04/04 09:18:36;;;;;;;4.23;3.23;;;7.60;99.90;;;;;;5045552;28;20709;-86
2022/04/04 09:21:18;;;;;;;1.27;0.70;;;7.60;99.90;;;;;;5064181;28;20215;-86
2022/04/04 09:23:48;;;;;;;0.90;0.90;;;7.60;99.90;;;;;;5050953;28;20237;-88
2022/04/04 09:26:32;;;;;;;5.77;0.87;;;7.70;99.90;;;;;;5046576;28;20248;-89
2022/04/04 09:29:19;;;;;;;2.27;2.10;;;7.70;99.90;;;;;;5064678;28;20225;-88
2022/04/04 09:32:05;;;;;;;4.43;1.47;;;7.70;99.90;;;;;;5064497;28;20235;-89
2022/04/04 09:35:08;;;;;;;2.33;1.47;;;7.80;99.90;;;;;;5045865;28;20177;-86
2022/04/04 09:37:36;;;;;;;1.53;1.43;;;7.80;99.90;;;;;;5063129;28;20181;-87
2022/04/04 09:40:19;;;;;;;4.33;1.87;;;7.70;99.90;;;;;;5062692;28;20203;-85
2022/04/04 09:42:51;;;;;;;7.93;1.07;;;7.80;99.90;;;;;;5045863;28;20229;-85
2022/04/04 09:45:24;;;;;;;2.70;1.50;;;7.70;99.90;;;;;;5045199;28;20217;-85
2022/04/04 09:48:07;;;;;;;0.67;0.60;;;7.80;99.90;;;;;;5079036;28;20220;-85
2022/04/04 09:50:41;;;;;;;0.70;0.70;;;7.80;99.90;;;;;;5045095;28;20243;-87
2022/04/04 09:53:20;;;;;;;0.47;0.47;;;7.90;99.90;;;;;;5046497;28;20225;-86
2022/04/04 09:55:55;;;;;;;1.80;1.73;;;7.90;99.90;;;;;;5063737;28;20213;-87
2022/04/04 09:58:29;;;;;;;6.20;0.93;;;7.90;99.90;;;;;;5063962;28;20184;-90
2022/04/04 10:00:58;;;;;;;3.10;1.63;;;8.00;99.90;;;;;;5056967;28;20243;-88
2022/04/04 10:03:24;;;;;;;0.67;0.67;;;8.00;99.90;;;;;;5080013;28;20254;-88
2022/04/04 10:06:00;;;;;;;2.17;0.90;;;8.00;99.90;;;;;;5054982;28;20259;-88
2022/04/04 10:08:26;;;;;;;0.93;0.83;;;7.90;99.90;;;;;;5064310;28;20806;-89
2022/04/04 10:10:54;;;;;;;0.43;0.43;;;8.00;99.90;;;;;;5064615;28;20316;-90
2022/04/04 10:13:21;;;;;;;0.53;0.37;;;8.00;99.90;;;;;;5046712;28;20185;-86
2022/04/04 10:15:47;;;;;;;1.43;0.70;;;8.00;99.90;;;;;;5047105;28;20270;-86
2022/04/04 10:18:15;;;;;;;0.60;0.60;;;8.00;99.90;;;;;;5063636;28;20274;-87
2022/04/04 10:20:41;;;;;;;1.10;0.77;;;8.00;99.90;;;;;;5077630;28;20228;-86
2022/04/04 10:23:12;;;;;;;0.83;0.70;;;8.00;99.90;;;;;;5060823;28;20225;-85
2022/04/04 10:25:39;;;;;;;0.40;0.40;;;8.00;99.90;;;;;;5063273;28;20177;-86
2022/04/04 10:28:06;;;;;;;2.17;1.37;;;8.00;99.90;;;;;;5063716;28;20192;-87
2022/04/04 10:30:40;;;;;;;0.50;0.40;;;8.10;99.90;;;;;;5063697;28;20644;-89
2022/04/04 10:33:18;;;;;;;0.30;0.30;;;8.10;99.90;;;;;;5046763;28;20252;-88
2022/04/04 10:35:59;;;;;;;0.50;0.50;;;8.10;99.90;;;;;;5064125;28;20721;-87
2022/04/04 10:38:52;;;;;;;0.63;0.63;;;8.10;99.90;;;;;;5079988;28;20213;-87
2022/04/04 10:41:19;;;;;;;0.77;0.50;;;8.20;99.90;;;;;;5060446;28;20322;-86
2022/04/04 10:43:47;;;;;;;0.40;0.40;;;8.20;99.90;;;;;;5062403;28;20229;-88
2022/04/04 10:46:15;;;;;;;1.03;0.60;;;8.30;99.90;;;;;;5062802;28;20173;-87
2022/04/04 10:48:46;;;;;;;0.70;0.60;;;8.30;99.90;;;;;;5045205;28;20806;-86
2022/04/04 10:51:17;;;;;;;0.70;0.70;;;8.30;99.90;;;;;;5062586;28;20248;-86
2022/04/04 10:53:54;;;;;;;0.70;0.67;;;8.40;99.90;;;;;;5061073;28;20251;-87
2022/04/04 10:56:22;;;;;;;0.80;0.80;;;8.40;99.90;;;;;;5043716;28;20224;-84
2022/04/04 10:58:51;;;;;;;0.50;0.50;;;8.40;99.90;;;;;;5064160;28;20220;-88
2022/04/04 11:01:20;;;;;;;0.80;0.80;;;8.50;99.90;;;;;;5064324;28;20235;-88
2022/04/04 11:03:52;;;;;;;2.10;0.87;;;8.50;99.90;;;;;;5046891;28;20677;-86
2022/04/04 11:09:26;;;;;;;1.17;1.10;;;8.50;99.90;;;;;;5064321;28;20223;-90
2022/04/04 11:12:01;;;;;;;1.27;1.27;;;8.50;99.90;;;;;;5045854;28;20239;-88
2022/04/04 11:14:39;;;;;;;0.87;0.87;;;8.60;99.90;;;;;;5062539;28;20217;-88
2022/04/04 11:17:08;;;;;;;2.47;1.23;;;8.60;99.90;;;;;;5044746;28;20728;-87
2022/04/04 11:20:00;;;;;;;0.80;0.80;;;8.60;99.90;;;;;;5061214;28;20228;-89
2022/04/04 11:22:27;;;;;;;4.23;1.37;;;8.60;99.90;;;;;;5063870;28;20205;-88
2022/04/04 11:24:55;;;;;;;3.73;0.80;;;8.70;99.90;;;;;;5047419;28;20757;-86
2022/04/04 11:27:23;;;;;;;1.57;1.47;;;8.70;99.90;;;;;;5045916;28;20213;-89
2022/04/04 11:29:49;;;;;;;1.03;0.97;;;8.70;99.90;;;;;;5046242;28;20240;-88
2022/04/04 11:32:31;;;;;;;3.67;1.37;;;8.70;99.90;;;;;;5061254;28;20676;-86
2022/04/04 11:35:06;;;;;;;0.73;0.73;;;8.70;99.90;;;;;;5079201;28;20308;-87
2022/04/04 11:37:39;;;;;;;0.60;0.60;;;8.80;99.90;;;;;;5062549;28;20269;-87
2022/04/04 11:40:06;;;;;;;1.43;1.30;;;8.80;99.90;;;;;;5063107;28;20848;-87
2022/04/04 11:42:42;;;;;;;2.60;1.57;;;8.80;99.90;;;;;;5062447;28;20233;-88
2022/04/04 11:45:08;;;;;;;3.87;0.97;;;8.80;99.90;;;;;;5049156;28;20311;-87
2022/04/04 11:47:39;;;;;;;1.03;1.03;;;8.80;99.90;;;;;;5048456;28;20347;-88
2022/04/04 11:50:06;;;;;;;0.97;0.87;;;8.80;99.90;;;;;;5066811;28;20240;-88
2022/04/04 11:52:48;;;;;;;1.73;1.63;;;8.80;99.90;;;;;;5081709;28;20204;-87
2022/04/04 11:55:16;;;;;;;3.17;2.73;;;8.90;99.90;;;;;;5067513;28;20181;-89
2022/04/04 11:57:46;;;;;;;0.80;0.80;;;9.00;99.90;;;;;;5066599;28;20259;-92
2022/04/04 12:00:16;;;;;;;3.43;1.23;;;9.00;99.90;;;;;;5054303;28;20223;-89
2022/04/04 12:02:43;;;;;;;2.10;1.33;;;9.00;99.90;;;;;;5082830;28;20768;-89
2022/04/04 12:05:12;;;;;;;2.83;0.83;;;9.00;99.90;;;;;;5082932;28;20311;-88
2022/04/04 12:07:38;;;;;;;1.27;1.20;;;9.00;99.90;;;;;;5067097;28;20466;-88
2022/04/04 12:10:04;;;;;;;2.43;1.40;;;9.10;99.90;;;;;;5049031;28;20193;-86
2022/04/04 12:12:31;;;;;;;5.63;1.77;;;9.10;99.90;;;;;;5064960;28;20223;-90
2022/04/04 12:14:56;;;;;;;6.80;2.10;;;9.20;99.90;;;;;;5065550;28;20225;-85
2022/04/04 12:17:25;;;;;;;1.23;1.13;;;9.20;99.90;;;;;;5066460;28;20221;-88
2022/04/04 12:19:52;;;;;;;1.57;1.33;;;9.20;99.90;;;;;;5047898;28;20216;-88
2022/04/04 12:25:06;;;;;;;11.40;1.77;;;9.30;99.90;;;;;;5066454;28;20232;-87
2022/04/04 12:27:32;;;;;;;3.20;1.07;;;9.30;99.90;;;;;;5065771;28;20209;-86
2022/04/04 12:30:03;;;;;;;1.53;1.00;;;9.40;99.90;;;;;;5065758;28;20225;-86
2022/04/04 12:32:47;;;;;;;1.50;1.07;;;9.30;99.90;;;;;;5066557;28;20300;-85
2022/04/04 12:35:13;;;;;;;6.17;1.33;;;9.40;99.90;;;;;;5048295;28;20243;-86
2022/04/04 12:37:41;;;;;;;6.90;3.03;;;9.40;99.90;;;;;;5081329;28;20205;-88
2022/04/04 12:40:13;;;;;;;2.23;1.30;;;9.40;99.90;;;;;;5066130;28;20178;-89
2022/04/04 12:42:38;;;;;;;16.03;1.50;;;9.40;99.90;;;;;;5065064;28;20233;-90
2022/04/04 12:45:05;;;;;;;0.20;0.20;;;9.40;99.90;;;;;;5048411;28;20285;-87
2022/04/04 12:47:31;;;;;;;1.20;1.13;;;9.50;99.90;;;;;;5048259;28;20250;-86
2022/04/04 12:50:16;;;;;;;7.20;1.70;;;9.50;99.90;;;;;;5081975;28;20221;-88
2022/04/04 12:53:02;;;;;;;0.63;0.63;;;9.50;99.90;;;;;;5065307;28;20283;-87
2022/04/04 12:55:28;;;;;;;1.07;0.97;;;9.50;99.90;;;;;;5081527;28;20189;-87
2022/04/04 12:57:55;;;;;;;8.70;3.37;;;9.50;99.90;;;;;;5064865;28;20181;-89
2022/04/04 13:00:40;;;;;;;1.67;1.57;;;9.60;99.90;;;;;;5047222;28;20705;-89
2022/04/04 13:03:22;;;;;;;2.73;1.07;;;9.60;99.90;;;;;;5048219;28;20275;-88
2022/04/04 13:05:49;;;;;;;1.33;1.23;;;9.60;99.90;;;;;;5081252;28;20224;-89
2022/04/04 13:08:25;;;;;;;2.07;0.63;;;9.60;99.90;;;;;;5047849;28;20213;-89
2022/04/04 13:11:08;;;;;;;1.27;1.20;;;9.60;99.90;;;;;;5048121;28;20212;-88
2022/04/04 13:13:35;;;;;;;4.13;1.63;;;9.70;99.90;;;;;;5064384;28;20200;-93